createdAt,value
2018-02-18T00:01:44.196Z,15.00
2018-02-18T00:04:10.156Z,16.83
2018-02-18T00:06:36.864Z,14.13
2018-02-18T00:09:02.930Z,13.80
2018-02-18T00:11:28.918Z,14.40
2018-02-18T00:13:54.877Z,10.83
2018-02-18T00:16:20.877Z,18.17
2018-02-18T00:18:46.837Z,17.83
2018-02-18T00:21:12.829Z,23.13
2018-02-18T00:23:39.533Z,19.03
2018-02-18T00:26:05.534Z,14.93
2018-02-18T00:28:31.509Z,18.40
2018-02-18T00:30:57.521Z,24.17
2018-02-18T00:33:23.513Z,18.13
2018-02-18T00:35:50.386Z,18.90
2018-02-18T00:38:16.341Z,22.43
2018-02-18T00:40:42.302Z,18.27
2018-02-18T00:43:08.294Z,16.03
2018-02-18T00:45:34.248Z,19.00
2018-02-18T00:48:00.245Z,17.90
2018-02-18T00:50:26.241Z,13.33
2018-02-18T00:52:52.225Z,16.33
2018-02-18T00:55:18.953Z,22.67
2018-02-18T00:57:44.912Z,20.73
2018-02-18T01:00:11.709Z,18.10
2018-02-18T01:02:37.697Z,18.20
2018-02-18T01:05:03.679Z,20.20
2018-02-18T01:07:29.721Z,28.67
2018-02-18T01:09:58.461Z,17.90
2018-02-18T01:12:24.414Z,15.80
2018-02-18T01:14:51.142Z,18.03
2018-02-18T01:17:17.089Z,20.93
2018-02-18T01:19:43.193Z,19.40
2018-02-18T01:22:09.152Z,14.50
2018-02-18T01:24:35.145Z,15.50
2018-02-18T01:27:01.101Z,17.67
2018-02-18T01:29:27.076Z,18.57
2018-02-18T01:31:53.809Z,21.30
2018-02-18T01:34:19.795Z,20.53
2018-02-18T01:36:45.749Z,16.93
2018-02-18T01:39:11.699Z,17.73
2018-02-18T01:41:37.689Z,22.50
2018-02-18T01:44:04.413Z,24.70
2018-02-18T01:46:30.395Z,20.93
2018-02-18T01:48:56.558Z,21.13
2018-02-18T01:51:22.507Z,19.00
2018-02-18T01:53:48.453Z,23.10
2018-02-18T01:56:14.438Z,22.33
2018-02-18T01:58:40.450Z,18.50
2018-02-18T02:01:07.165Z,22.23
2018-02-18T02:03:33.271Z,23.20
2018-02-18T02:05:59.240Z,21.33
2018-02-18T02:08:25.192Z,22.43
2018-02-18T02:10:51.174Z,27.13
2018-02-18T02:13:17.121Z,23.50
2018-02-18T02:15:43.130Z,24.93
2018-02-18T02:18:09.819Z,32.07
2018-02-18T02:20:35.771Z,29.40
2018-02-18T02:23:01.777Z,34.80
2018-02-18T02:25:27.744Z,39.23
2018-02-18T02:27:53.732Z,30.43
2018-02-18T02:30:19.685Z,27.50
2018-02-18T02:32:45.719Z,36.87
2018-02-18T02:35:11.680Z,27.80
2018-02-18T02:37:37.667Z,27.17
2018-02-18T02:40:04.379Z,34.10
2018-02-18T02:42:30.384Z,35.77
2018-02-18T02:44:56.330Z,28.03
2018-02-18T02:47:22.412Z,27.80
2018-02-18T02:49:49.096Z,37.17
2018-02-18T02:52:15.103Z,32.83
2018-02-18T02:54:41.056Z,35.50
2018-02-18T02:57:07.024Z,31.77
2018-02-18T02:59:32.973Z,32.83
2018-02-18T03:01:58.969Z,47.13
2018-02-18T03:04:24.916Z,46.50
2018-02-18T03:06:50.908Z,33.50
2018-02-18T03:09:16.849Z,37.97
2018-02-18T03:11:43.528Z,41.20
2018-02-18T03:14:09.539Z,36.57
2018-02-18T03:16:36.404Z,33.90
2018-02-18T03:19:03.128Z,36.33
2018-02-18T03:21:29.089Z,37.23
2018-02-18T03:23:55.080Z,41.23
2018-02-18T03:26:21.017Z,37.53
2018-02-18T03:28:46.952Z,42.27
2018-02-18T03:31:12.929Z,38.20
2018-02-18T03:33:39.654Z,33.90
2018-02-18T03:36:05.636Z,40.13
2018-02-18T03:38:31.599Z,37.97
2018-02-18T03:40:57.576Z,42.93
2018-02-18T03:43:23.532Z,39.20
2018-02-18T03:45:50.257Z,37.93
2018-02-18T03:48:16.226Z,35.33
2018-02-18T03:50:42.172Z,39.30
2018-02-18T03:53:08.175Z,29.83
2018-02-18T03:55:34.952Z,42.67
2018-02-18T03:58:00.949Z,39.40
2018-02-18T04:00:27.646Z,32.27
2018-02-18T04:02:53.624Z,44.60
2018-02-18T04:05:19.569Z,36.33
2018-02-18T04:07:45.536Z,33.87
2018-02-18T04:10:12.221Z,42.77
2018-02-18T04:12:38.196Z,35.20
2018-02-18T04:15:04.184Z,33.20
2018-02-18T04:17:30.216Z,32.87
2018-02-18T04:19:56.192Z,40.50
2018-02-18T04:22:22.164Z,29.73
2018-02-18T04:24:48.845Z,31.57
2018-02-18T04:27:14.824Z,24.50
2018-02-18T04:29:40.768Z,31.00
2018-02-18T04:32:06.708Z,35.00
2018-02-18T04:34:32.700Z,32.80
2018-02-18T04:36:58.688Z,32.13
2018-02-18T04:39:25.465Z,34.33
2018-02-18T04:41:51.408Z,32.50
2018-02-18T04:44:17.404Z,31.90
2018-02-18T04:46:43.403Z,32.93
2018-02-18T04:49:09.340Z,30.27
2018-02-18T04:51:35.316Z,34.50
2018-02-18T04:54:01.260Z,28.00
2018-02-18T04:56:28.000Z,33.40
2018-02-18T04:58:54.002Z,33.70
2018-02-18T05:01:19.964Z,29.83
2018-02-18T05:03:45.912Z,30.97
2018-02-18T05:06:11.885Z,31.43
2018-02-18T05:08:37.828Z,35.07
2018-02-18T05:11:03.819Z,27.07
2018-02-18T05:13:29.904Z,36.23
2018-02-18T05:15:55.898Z,27.77
2018-02-18T05:18:22.593Z,33.23
2018-02-18T05:20:48.564Z,35.27
2018-02-18T05:23:14.644Z,32.83
2018-02-18T05:25:40.592Z,42.27
2018-02-18T05:28:06.565Z,26.70
2018-02-18T05:30:32.535Z,26.10
2018-02-18T05:32:59.275Z,39.63
2018-02-18T05:35:25.248Z,29.33
2018-02-18T05:37:51.240Z,29.87
2018-02-18T05:40:17.928Z,26.17
2018-02-18T05:42:43.879Z,30.87
2018-02-18T05:45:09.954Z,36.20
2018-02-18T05:47:35.931Z,29.87
2018-02-18T05:50:02.659Z,30.00
2018-02-18T05:52:28.788Z,28.37
2018-02-18T05:54:55.548Z,27.63
2018-02-18T05:57:21.530Z,28.70
2018-02-18T05:59:47.475Z,36.67
2018-02-18T06:02:13.461Z,30.43
2018-02-18T06:04:39.424Z,31.73
2018-02-18T06:07:05.428Z,30.90
2018-02-18T06:09:31.380Z,29.93
2018-02-18T06:11:57.324Z,33.00
2018-02-18T06:14:24.052Z,30.97
2018-02-18T06:16:50.016Z,27.97
2018-02-18T06:19:15.992Z,24.87
2018-02-18T06:21:41.980Z,27.47
2018-02-18T06:24:08.696Z,26.40
2018-02-18T06:26:34.678Z,33.43
2018-02-18T06:29:00.641Z,37.90
2018-02-18T06:31:26.602Z,29.90
2018-02-18T06:33:52.577Z,29.43
2018-02-18T06:36:19.259Z,27.93
2018-02-18T06:38:45.248Z,28.33
2018-02-18T06:41:11.198Z,23.27
2018-02-18T06:43:37.939Z,23.07
2018-02-18T06:46:03.899Z,32.07
2018-02-18T06:48:29.917Z,33.23
2018-02-18T06:50:55.919Z,27.93
2018-02-18T06:53:21.896Z,29.03
2018-02-18T06:55:48.716Z,29.70
2018-02-18T06:58:14.708Z,23.80
2018-02-18T07:00:40.685Z,27.13
2018-02-18T07:03:06.638Z,32.70
2018-02-18T07:05:33.356Z,32.40
2018-02-18T07:07:59.312Z,35.50
2018-02-18T07:10:25.289Z,30.40
2018-02-18T07:12:51.246Z,25.10
2018-02-18T07:15:17.253Z,35.43
2018-02-18T07:17:43.937Z,32.23
2018-02-18T07:20:09.926Z,32.47
2018-02-18T07:22:35.872Z,25.27
2018-02-18T07:25:02.626Z,29.30
2018-02-18T07:27:29.333Z,21.13
2018-02-18T07:29:55.312Z,27.87
2018-02-18T07:32:22.000Z,32.70
2018-02-18T07:34:47.989Z,34.80
2018-02-18T07:37:13.940Z,28.30
2018-02-18T07:39:40.632Z,24.50
2018-02-18T07:42:07.148Z,24.23
2018-02-18T07:44:33.478Z,21.90
2018-02-18T07:47:00.269Z,25.33
2018-02-18T07:49:26.221Z,21.97
2018-02-18T07:51:52.208Z,19.90
2018-02-18T07:54:18.896Z,17.73
2018-02-18T07:56:44.842Z,19.57
2018-02-18T07:59:10.828Z,24.30
2018-02-18T08:01:37.513Z,19.03
2018-02-18T08:04:03.494Z,18.27
2018-02-18T08:06:29.725Z,20.03
2018-02-18T08:08:55.701Z,18.37
2018-02-18T08:11:22.384Z,21.93
2018-02-18T08:13:48.361Z,21.03
2018-02-18T08:16:14.384Z,20.43
2018-02-18T08:18:40.330Z,16.17
2018-02-18T08:21:06.790Z,20.63
2018-02-18T08:23:33.601Z,15.80
2018-02-18T08:25:59.584Z,20.70
2018-02-18T08:28:25.553Z,17.90
2018-02-18T08:30:51.544Z,15.63
2018-02-18T08:33:17.568Z,15.27
2018-02-18T08:35:43.535Z,14.10
2018-02-18T08:38:09.580Z,15.33
2018-02-18T08:40:35.580Z,16.27
2018-02-18T08:43:01.540Z,12.57
2018-02-18T08:45:27.533Z,14.57
2018-02-18T08:47:54.265Z,15.23
2018-02-18T08:50:20.252Z,12.00
2018-02-18T08:52:46.236Z,14.97
2018-02-18T08:55:12.240Z,13.47
2018-02-18T08:57:38.248Z,16.30
2018-02-18T09:00:04.244Z,10.57
2018-02-18T09:02:30.233Z,9.80
2018-02-18T09:04:56.225Z,12.20
2018-02-18T09:07:22.213Z,11.90
2018-02-18T09:09:48.153Z,12.80
2018-02-18T09:12:14.161Z,10.70
2018-02-18T09:14:40.128Z,10.57
2018-02-18T09:17:06.174Z,11.80
2018-02-18T09:19:32.268Z,90.80
2018-02-18T09:21:58.248Z,13.00
2018-02-18T09:24:24.205Z,14.23
2018-02-18T09:26:50.197Z,14.47
2018-02-18T09:29:16.182Z,11.70
2018-02-18T09:31:42.156Z,10.57
2018-02-18T09:34:08.196Z,12.40
2018-02-18T09:36:34.184Z,17.37
2018-02-18T09:39:00.201Z,15.97
2018-02-18T09:41:26.150Z,15.80
2018-02-18T09:43:52.134Z,7.97
2018-02-18T09:46:18.162Z,7.90
2018-02-18T09:48:44.124Z,12.03
2018-02-18T09:51:10.156Z,11.00
2018-02-18T09:53:36.170Z,12.67
2018-02-18T09:56:02.164Z,15.37
2018-02-18T09:58:28.156Z,26.63
2018-02-18T10:00:54.164Z,33.77
2018-02-18T10:03:20.857Z,14.93
2018-02-18T10:05:46.852Z,66.93
2018-02-18T10:08:13.589Z,21.07
2018-02-18T10:10:39.579Z,15.43
2018-02-18T10:13:05.699Z,47.63
2018-02-18T10:15:31.671Z,18.57
2018-02-18T10:17:57.673Z,13.33
2018-02-18T10:20:23.674Z,26.67
2018-02-18T10:22:49.742Z,11.83
2018-02-18T10:25:15.753Z,61.03
2018-02-18T10:27:41.766Z,55.30
2018-02-18T10:30:07.793Z,18.80
2018-02-18T10:32:33.814Z,14.07
2018-02-18T10:34:59.886Z,24.27
2018-02-18T10:37:26.002Z,28.73
2018-02-18T10:39:52.047Z,32.87
2018-02-18T10:42:18.216Z,15.77
2018-02-18T10:44:44.290Z,13.50
2018-02-18T10:47:10.323Z,17.53
2018-02-18T10:49:36.404Z,11.27
2018-02-18T10:52:02.453Z,10.17
2018-02-18T10:54:28.418Z,11.87
2018-02-18T10:56:55.162Z,14.40
2018-02-18T10:59:21.874Z,11.53
2018-02-18T11:01:47.921Z,19.40
2018-02-18T11:04:14.027Z,13.83
2018-02-18T11:06:40.105Z,20.07
2018-02-18T11:09:06.122Z,11.77
2018-02-18T11:11:32.143Z,7.80
2018-02-18T11:14:05.116Z,19.10
2018-02-18T11:16:31.890Z,11.27
2018-02-18T11:18:57.881Z,19.57
2018-02-18T11:21:23.975Z,13.23
2018-02-18T11:23:50.030Z,14.93
2018-02-18T11:26:16.042Z,25.40
2018-02-18T11:28:42.044Z,19.03
2018-02-18T11:31:08.114Z,6.47
2018-02-18T11:33:34.102Z,8.90
2018-02-18T11:36:00.212Z,5.67
2018-02-18T11:38:26.141Z,9.90
2018-02-18T11:40:52.157Z,4.80
2018-02-18T11:43:18.241Z,8.20
2018-02-18T11:45:44.301Z,5.90
2018-02-18T11:48:10.390Z,9.80
2018-02-18T11:50:36.439Z,10.23
2018-02-18T11:53:02.397Z,6.37
2018-02-18T11:55:30.479Z,6.90
2018-02-18T11:57:56.470Z,5.33
2018-02-18T12:00:22.546Z,6.57
2018-02-18T12:02:48.523Z,6.07
2018-02-18T12:05:14.507Z,5.87
2018-02-18T12:07:40.504Z,6.97
2018-02-18T12:10:06.534Z,8.67
2018-02-18T12:12:32.501Z,4.80
2018-02-18T12:14:58.534Z,8.93
2018-02-18T12:17:24.530Z,9.17
2018-02-18T12:19:51.302Z,6.50
2018-02-18T12:22:17.298Z,7.17
2018-02-18T12:24:44.033Z,5.33
2018-02-18T12:27:10.036Z,7.60
2018-02-18T12:29:36.047Z,6.17
2018-02-18T12:32:02.787Z,6.43
2018-02-18T12:34:29.485Z,8.90
2018-02-18T12:36:55.482Z,5.53
2018-02-18T12:39:21.450Z,6.33
2018-02-18T12:41:47.466Z,4.83
2018-02-18T12:44:14.307Z,6.70
2018-02-18T12:46:41.027Z,7.23
2018-02-18T12:49:06.977Z,5.13
2018-02-18T12:51:32.987Z,4.50
2018-02-18T12:53:58.942Z,6.60
2018-02-18T12:56:25.030Z,7.67
2018-02-18T12:58:51.123Z,5.03
2018-02-18T13:01:17.094Z,4.80
2018-02-18T13:03:43.154Z,5.90
2018-02-18T13:06:09.193Z,8.53
2018-02-18T13:08:35.212Z,6.40
2018-02-18T13:11:01.223Z,5.43
2018-02-18T13:13:27.925Z,5.80
2018-02-18T13:15:53.958Z,6.13
2018-02-18T13:18:20.006Z,5.90
2018-02-18T13:20:45.971Z,4.57
2018-02-18T13:23:11.933Z,6.20
2018-02-18T13:25:38.675Z,4.60
2018-02-18T13:28:12.414Z,4.50
2018-02-18T13:30:38.371Z,6.30
2018-02-18T13:33:04.361Z,7.17
2018-02-18T13:35:31.065Z,5.07
2018-02-18T13:37:57.082Z,8.43
2018-02-18T13:40:23.086Z,7.80
2018-02-18T13:42:49.788Z,7.00
2018-02-18T13:45:15.802Z,8.13
2018-02-18T13:47:41.754Z,6.70
2018-02-18T13:50:07.758Z,7.90
2018-02-18T13:52:34.492Z,5.80
2018-02-18T13:55:00.450Z,5.97
2018-02-18T13:57:26.496Z,7.43
2018-02-18T13:59:52.506Z,5.13
2018-02-18T14:02:19.255Z,6.03
2018-02-18T14:04:45.230Z,7.10
2018-02-18T14:07:11.218Z,14.10
2018-02-18T14:09:37.170Z,5.30
2018-02-18T14:12:03.900Z,9.00
2018-02-18T14:14:29.864Z,5.67
2018-02-18T14:16:56.585Z,9.87
2018-02-18T14:19:22.615Z,6.43
2018-02-18T14:21:48.610Z,5.73
2018-02-18T14:24:14.622Z,6.07
2018-02-18T14:26:41.323Z,5.13
2018-02-18T14:29:07.334Z,7.73
2018-02-18T14:31:33.285Z,5.00
2018-02-18T14:33:59.310Z,10.47
2018-02-18T14:36:25.265Z,7.77
2018-02-18T14:38:58.222Z,6.50
2018-02-18T14:41:37.374Z,5.50
2018-02-18T14:44:16.645Z,5.90
2018-02-18T14:46:55.006Z,7.57
2018-02-18T14:49:33.471Z,8.20
2018-02-18T14:52:12.662Z,6.73
2018-02-18T14:57:38.434Z,8.80
2018-02-18T15:00:04.434Z,5.77
2018-02-18T15:02:31.177Z,6.77
2018-02-18T15:04:57.891Z,9.53
2018-02-18T15:07:23.956Z,6.00
2018-02-18T15:09:49.897Z,7.80
2018-02-18T15:12:16.638Z,8.67
2018-02-18T15:14:42.607Z,7.90
2018-02-18T15:17:08.651Z,9.03
2018-02-18T15:19:34.619Z,7.03
2018-02-18T15:22:00.638Z,5.57
2018-02-18T15:24:26.626Z,5.73
2018-02-18T15:26:52.641Z,4.83
2018-02-18T15:29:18.610Z,5.03
2018-02-18T15:31:45.395Z,5.20
2018-02-18T15:34:11.543Z,5.73
2018-02-18T15:36:37.554Z,4.70
2018-02-18T15:39:03.578Z,5.17
2018-02-18T15:41:30.298Z,7.23
2018-02-18T15:43:56.332Z,10.90
2018-02-18T15:46:22.331Z,7.27
2018-02-18T15:48:48.306Z,7.97
2018-02-18T15:51:14.308Z,13.77
2018-02-18T15:53:40.329Z,9.80
2018-02-18T15:56:06.358Z,13.53
2018-02-18T15:58:33.058Z,8.63
2018-02-18T16:00:59.053Z,10.67
2018-02-18T16:03:25.015Z,9.13
2018-02-18T16:05:50.983Z,9.07
2018-02-18T16:08:17.763Z,13.00
2018-02-18T16:10:43.745Z,6.80
2018-02-18T16:13:09.754Z,7.80
2018-02-18T16:15:35.769Z,10.87
2018-02-18T16:18:01.743Z,8.33
2018-02-18T16:20:27.709Z,12.63
2018-02-18T16:22:53.794Z,12.07
2018-02-18T16:25:19.758Z,15.93
2018-02-18T16:27:45.722Z,11.03
2018-02-18T16:30:11.721Z,11.33
2018-02-18T16:32:37.708Z,9.83
2018-02-18T16:35:03.685Z,8.00
2018-02-18T16:37:29.685Z,11.70
2018-02-18T16:39:55.711Z,7.93
2018-02-18T16:42:21.727Z,6.77
2018-02-18T16:44:47.726Z,12.27
2018-02-18T16:47:13.746Z,10.53
2018-02-18T16:49:39.747Z,9.70
2018-02-18T16:52:05.781Z,19.33
2018-02-18T16:54:31.766Z,9.77
2018-02-18T16:56:57.736Z,7.00
2018-02-18T16:59:23.763Z,7.40
2018-02-18T17:01:49.733Z,7.60
2018-02-18T17:04:15.734Z,8.80
2018-02-18T17:06:41.712Z,8.20
2018-02-18T17:09:07.694Z,8.67
2018-02-18T17:11:33.713Z,6.80
2018-02-18T17:14:00.445Z,11.43
2018-02-18T17:16:26.470Z,6.00
2018-02-18T17:18:52.609Z,12.00
2018-02-18T17:21:18.710Z,10.97
2018-02-18T17:23:44.718Z,8.27
2018-02-18T17:26:10.715Z,10.80
2018-02-18T17:28:36.727Z,9.93
2018-02-18T17:31:02.721Z,7.00
2018-02-18T17:33:29.422Z,6.20
2018-02-18T17:36:02.315Z,7.17
2018-02-18T17:38:28.308Z,6.63
2018-02-18T17:40:55.065Z,9.90
2018-02-18T17:43:21.777Z,8.47
2018-02-18T17:45:47.761Z,7.10
2018-02-18T17:48:14.490Z,12.90
2018-02-18T17:50:40.501Z,21.03
2018-02-18T17:53:06.493Z,10.43
2018-02-18T17:55:32.470Z,12.40
2018-02-18T17:57:58.494Z,11.40
2018-02-18T18:00:24.465Z,11.17
2018-02-18T18:02:50.508Z,11.00
2018-02-18T18:05:16.482Z,11.47
2018-02-18T18:07:43.257Z,15.70
2018-02-18T18:10:09.222Z,10.17
2018-02-18T18:12:35.227Z,13.93
2018-02-18T18:15:01.198Z,22.10
2018-02-18T18:17:27.153Z,22.50
2018-02-18T18:19:54.102Z,10.50
2018-02-18T18:22:20.107Z,11.97
2018-02-18T18:24:46.093Z,14.20
2018-02-18T18:27:13.397Z,20.30
2018-02-18T18:29:39.400Z,16.70
2018-02-18T18:32:05.431Z,13.97
2018-02-18T18:34:32.170Z,11.47
2018-02-18T18:36:58.133Z,14.50
2018-02-18T18:39:24.126Z,8.70
2018-02-18T18:41:50.925Z,14.10
2018-02-18T18:44:16.943Z,13.10
2018-02-18T18:46:43.646Z,14.97
2018-02-18T18:49:09.784Z,16.63
2018-02-18T18:51:35.826Z,12.60
2018-02-18T18:54:01.856Z,10.40
2018-02-18T18:56:27.841Z,11.40
2018-02-18T18:58:54.574Z,13.97
2018-02-18T19:01:20.634Z,12.80
2018-02-18T19:03:47.358Z,9.53
2018-02-18T19:06:13.360Z,8.13
2018-02-18T19:08:39.340Z,8.37
2018-02-18T19:11:05.304Z,9.07
2018-02-18T19:13:32.041Z,9.87
2018-02-18T19:15:58.770Z,6.43
2018-02-18T19:18:24.834Z,6.70
2018-02-18T19:20:51.610Z,8.13
2018-02-18T19:23:17.579Z,7.07
2018-02-18T19:25:43.671Z,9.20
2018-02-18T19:28:09.673Z,5.57
2018-02-18T19:30:35.636Z,6.37
2018-02-18T19:33:02.385Z,11.60
2018-02-18T19:35:29.114Z,8.23
2018-02-18T19:38:02.210Z,10.93
2018-02-18T19:40:28.194Z,8.67
2018-02-18T19:42:54.928Z,10.03
2018-02-18T19:45:20.941Z,10.73
2018-02-18T19:47:46.930Z,11.23
2018-02-18T19:50:12.930Z,12.07
2018-02-18T19:52:39.677Z,9.30
2018-02-18T19:55:05.682Z,9.47
2018-02-18T19:57:31.707Z,12.10
2018-02-18T19:59:57.673Z,10.00
2018-02-18T20:02:23.754Z,11.53
2018-02-18T20:04:49.725Z,12.60
2018-02-18T20:07:15.724Z,10.00
2018-02-18T20:09:42.477Z,9.07
2018-02-18T20:12:09.242Z,13.80
2018-02-18T20:14:35.238Z,10.20
2018-02-18T20:17:01.951Z,10.80
2018-02-18T20:19:27.921Z,8.87
2018-02-18T20:21:53.884Z,9.40
2018-02-18T20:24:20.666Z,9.00
2018-02-18T20:26:46.625Z,8.70
2018-02-18T20:29:12.619Z,12.30
2018-02-18T20:31:39.358Z,10.57
2018-02-18T20:34:05.306Z,8.97
2018-02-18T20:36:31.294Z,11.53
2018-02-18T20:38:57.257Z,14.30
2018-02-18T20:41:23.488Z,15.80
2018-02-18T20:43:49.490Z,11.23
2018-02-18T20:46:15.510Z,9.80
2018-02-18T20:48:41.490Z,9.03
2018-02-18T20:51:07.486Z,10.30
2018-02-18T20:53:34.476Z,10.00
2018-02-18T20:56:00.582Z,11.60
2018-02-18T20:58:26.651Z,12.83
2018-02-18T21:00:52.711Z,8.73
2018-02-18T21:03:18.772Z,10.70
2018-02-18T21:05:45.752Z,11.40
2018-02-18T21:08:11.747Z,11.43
2018-02-18T21:10:37.819Z,8.20
2018-02-18T21:13:03.839Z,9.23
2018-02-18T21:15:29.818Z,9.10
2018-02-18T21:18:02.907Z,7.43
2018-02-18T21:20:28.875Z,10.67
2018-02-18T21:22:54.938Z,14.90
2018-02-18T21:25:20.941Z,11.37
2018-02-18T21:27:46.948Z,11.90
2018-02-18T21:30:12.910Z,13.33
2018-02-18T21:32:38.889Z,9.60
2018-02-18T21:35:06.487Z,13.40
2018-02-18T21:37:33.268Z,9.70
2018-02-18T21:39:59.342Z,11.30
2018-02-18T21:42:26.092Z,9.97
2018-02-18T21:44:52.108Z,12.80
2018-02-18T21:47:18.198Z,11.53
2018-02-18T21:49:44.901Z,9.50
2018-02-18T21:52:10.862Z,9.47
2018-02-18T21:54:36.862Z,12.90
2018-02-18T21:57:02.919Z,13.43
2018-02-18T21:59:28.914Z,12.63
2018-02-18T22:01:55.961Z,9.00
2018-02-18T22:04:21.974Z,12.40
2018-02-18T22:06:48.836Z,10.03
2018-02-18T22:09:14.786Z,11.33
2018-02-18T22:11:41.481Z,9.10
2018-02-18T22:14:07.479Z,11.47
2018-02-18T22:16:33.483Z,9.70
2018-02-18T22:18:59.496Z,9.67
2018-02-18T22:21:25.501Z,10.77
2018-02-18T22:23:51.524Z,13.30
2018-02-18T22:26:18.269Z,12.30
2018-02-18T22:28:44.218Z,9.70
2018-02-18T22:31:10.922Z,11.30
2018-02-18T22:33:36.899Z,9.33
2018-02-18T22:36:03.630Z,12.03
2018-02-18T22:38:29.585Z,11.20
2018-02-18T22:40:56.330Z,10.50
2018-02-18T22:43:22.322Z,12.17
2018-02-18T22:45:48.325Z,15.23
2018-02-18T22:48:15.034Z,15.93
2018-02-18T22:50:41.035Z,13.93
2018-02-18T22:53:06.988Z,10.57
2018-02-18T22:55:32.955Z,14.00
2018-02-18T22:57:58.933Z,11.17
2018-02-18T23:00:24.966Z,13.00
2018-02-18T23:02:50.945Z,15.43
2018-02-18T23:05:23.052Z,13.03
2018-02-18T23:07:49.777Z,12.53
2018-02-18T23:10:15.732Z,16.40
2018-02-18T23:12:42.544Z,11.83
2018-02-18T23:15:08.550Z,13.30
2018-02-18T23:17:35.261Z,14.07
2018-02-18T23:20:01.255Z,15.00
2018-02-18T23:22:27.205Z,16.50
2018-02-18T23:24:53.189Z,13.40
2018-02-18T23:27:19.154Z,14.13
2018-02-18T23:29:45.897Z,12.93
2018-02-18T23:32:12.634Z,21.13
2018-02-18T23:34:38.649Z,12.50
2018-02-18T23:37:04.605Z,14.80
2018-02-18T23:39:30.582Z,12.10
2018-02-18T23:41:56.565Z,17.63
2018-02-18T23:44:22.656Z,15.23
2018-02-18T23:46:48.702Z,15.13
2018-02-18T23:49:14.690Z,13.17
2018-02-18T23:51:40.734Z,12.07
2018-02-18T23:54:06.691Z,16.60
2018-02-18T23:56:32.693Z,13.77
2018-02-18T23:58:59.473Z,19.37
